sensor_id;sensor_type;location;lat;lon;timestamp;P1;durP1;ratioP1;P2;durP2;ratioP2
14256;SDS011;7212;53.254;6.456;2022-07-29T00:01:39;1.25;;;1.15;;
14256;SDS011;7212;53.254;6.456;2022-07-29T00:04:05;1.10;;;1.00;;
14256;SDS011;7212;53.254;6.456;2022-07-29T00:06:30;1.40;;;1.10;;
14256;SDS011;7212;53.254;6.456;2022-07-29T00:08:56;1.25;;;1.00;;
14256;SDS011;7212;53.254;6.456;2022-07-29T00:11:22;1.65;;;1.10;;
14256;SDS011;7212;53.254;6.456;2022-07-29T00:13:47;1.10;;;1.10;;
14256;SDS011;7212;53.254;6.456;2022-07-29T00:16:13;1.10;;;1.00;;
14256;SDS011;7212;53.254;6.456;2022-07-29T00:18:39;1.02;;;1.00;;
14256;SDS011;7212;53.254;6.456;2022-07-29T00:21:04;1.42;;;1.33;;
14256;SDS011;7212;53.254;6.456;2022-07-29T00:23:30;1.83;;;1.20;;
14256;SDS011;7212;53.254;6.456;2022-07-29T00:25:55;1.00;;;1.00;;
14256;SDS011;7212;53.254;6.456;2022-07-29T00:28:21;1.10;;;1.00;;
14256;SDS011;7212;53.254;6.456;2022-07-29T00:30:46;0.95;;;0.93;;
14256;SDS011;7212;53.254;6.456;2022-07-29T00:33:12;1.20;;;1.10;;
14256;SDS011;7212;53.254;6.456;2022-07-29T00:35:38;1.48;;;1.13;;
14256;SDS011;7212;53.254;6.456;2022-07-29T00:38:12;1.20;;;1.10;;
14256;SDS011;7212;53.254;6.456;2022-07-29T00:40:40;1.27;;;1.10;;
14256;SDS011;7212;53.254;6.456;2022-07-29T00:43:06;2.45;;;1.20;;
14256;SDS011;7212;53.254;6.456;2022-07-29T00:45:32;1.20;;;1.10;;
14256;SDS011;7212;53.254;6.456;2022-07-29T00:47:58;1.30;;;1.17;;
14256;SDS011;7212;53.254;6.456;2022-07-29T00:50:24;1.58;;;1.20;;
14256;SDS011;7212;53.254;6.456;2022-07-29T00:52:50;1.60;;;0.90;;
14256;SDS011;7212;53.254;6.456;2022-07-29T00:55:17;1.00;;;1.00;;
14256;SDS011;7212;53.254;6.456;2022-07-29T00:57:43;1.30;;;1.20;;
14256;SDS011;7212;53.254;6.456;2022-07-29T01:00:11;1.20;;;1.10;;
14256;SDS011;7212;53.254;6.456;2022-07-29T01:02:42;1.20;;;1.10;;
14256;SDS011;7212;53.254;6.456;2022-07-29T01:05:08;1.38;;;1.23;;
14256;SDS011;7212;53.254;6.456;2022-07-29T01:07:37;1.52;;;1.20;;
14256;SDS011;7212;53.254;6.456;2022-07-29T01:10:04;1.80;;;1.30;;
14256;SDS011;7212;53.254;6.456;2022-07-29T01:12:32;1.35;;;1.20;;
14256;SDS011;7212;53.254;6.456;2022-07-29T01:15:00;1.55;;;1.23;;
14256;SDS011;7212;53.254;6.456;2022-07-29T01:17:36;1.45;;;1.20;;
14256;SDS011;7212;53.254;6.456;2022-07-29T01:20:20;1.38;;;1.20;;
14256;SDS011;7212;53.254;6.456;2022-07-29T01:28:46;2.33;;;1.42;;
14256;SDS011;7212;53.254;6.456;2022-07-29T01:34:05;1.23;;;1.13;;
14256;SDS011;7212;53.254;6.456;2022-07-29T01:36:35;1.42;;;1.33;;
14256;SDS011;7212;53.254;6.456;2022-07-29T01:39:08;1.77;;;1.20;;
14256;SDS011;7212;53.254;6.456;2022-07-29T01:41:38;1.45;;;1.10;;
14256;SDS011;7212;53.254;6.456;2022-07-29T01:44:16;1.00;;;1.00;;
14256;SDS011;7212;53.254;6.456;2022-07-29T01:46:52;1.50;;;1.30;;
14256;SDS011;7212;53.254;6.456;2022-07-29T01:49:25;1.30;;;1.08;;
14256;SDS011;7212;53.254;6.456;2022-07-29T01:52:03;1.20;;;1.10;;
14256;SDS011;7212;53.254;6.456;2022-07-29T01:54:38;1.25;;;1.15;;
14256;SDS011;7212;53.254;6.456;2022-07-29T01:57:15;1.30;;;1.20;;
14256;SDS011;7212;53.254;6.456;2022-07-29T01:59:45;1.40;;;1.30;;
14256;SDS011;7212;53.254;6.456;2022-07-29T02:02:14;1.30;;;1.20;;
14256;SDS011;7212;53.254;6.456;2022-07-29T02:04:41;1.40;;;1.30;;
14256;SDS011;7212;53.254;6.456;2022-07-29T02:07:11;1.33;;;1.20;;
14256;SDS011;7212;53.254;6.456;2022-07-29T02:09:39;1.98;;;1.30;;
14256;SDS011;7212;53.254;6.456;2022-07-29T02:12:07;2.17;;;1.40;;
14256;SDS011;7212;53.254;6.456;2022-07-29T02:14:36;2.00;;;1.20;;
14256;SDS011;7212;53.254;6.456;2022-07-29T02:17:04;1.27;;;1.17;;
14256;SDS011;7212;53.254;6.456;2022-07-29T02:19:31;1.20;;;1.10;;
14256;SDS011;7212;53.254;6.456;2022-07-29T02:21:58;1.73;;;1.30;;
14256;SDS011;7212;53.254;6.456;2022-07-29T02:24:25;1.55;;;1.25;;
14256;SDS011;7212;53.254;6.456;2022-07-29T02:26:53;1.10;;;1.00;;
14256;SDS011;7212;53.254;6.456;2022-07-29T02:29:22;1.73;;;1.30;;
14256;SDS011;7212;53.254;6.456;2022-07-29T02:31:51;1.38;;;1.27;;
14256;SDS011;7212;53.254;6.456;2022-07-29T02:34:19;1.27;;;1.17;;
14256;SDS011;7212;53.254;6.456;2022-07-29T02:36:45;1.50;;;1.20;;
14256;SDS011;7212;53.254;6.456;2022-07-29T02:39:13;1.67;;;1.40;;
14256;SDS011;7212;53.254;6.456;2022-07-29T02:41:44;1.40;;;1.30;;
14256;SDS011;7212;53.254;6.456;2022-07-29T02:44:11;1.30;;;1.20;;
14256;SDS011;7212;53.254;6.456;2022-07-29T02:46:41;2.30;;;1.77;;
14256;SDS011;7212;53.254;6.456;2022-07-29T02:51:53;1.40;;;1.27;;
14256;SDS011;7212;53.254;6.456;2022-07-29T02:54:33;1.30;;;1.20;;
14256;SDS011;7212;53.254;6.456;2022-07-29T02:57:09;1.40;;;1.30;;
14256;SDS011;7212;53.254;6.456;2022-07-29T02:59:42;1.27;;;1.10;;
14256;SDS011;7212;53.254;6.456;2022-07-29T03:02:10;2.20;;;1.40;;
14256;SDS011;7212;53.254;6.456;2022-07-29T03:04:40;1.70;;;1.35;;
14256;SDS011;7212;53.254;6.456;2022-07-29T03:07:07;2.10;;;1.40;;
14256;SDS011;7212;53.254;6.456;2022-07-29T03:09:35;1.60;;;1.20;;
14256;SDS011;7212;53.254;6.456;2022-07-29T03:12:03;1.42;;;1.33;;
14256;SDS011;7212;53.254;6.456;2022-07-29T03:14:29;1.50;;;1.40;;
14256;SDS011;7212;53.254;6.456;2022-07-29T03:16:56;2.90;;;1.25;;
14256;SDS011;7212;53.254;6.456;2022-07-29T03:19:23;2.88;;;1.50;;
14256;SDS011;7212;53.254;6.456;2022-07-29T03:21:49;1.83;;;1.30;;
14256;SDS011;7212;53.254;6.456;2022-07-29T03:24:24;1.30;;;1.20;;
14256;SDS011;7212;53.254;6.456;2022-07-29T03:26:51;1.73;;;1.25;;
14256;SDS011;7212;53.254;6.456;2022-07-29T03:29:16;1.55;;;1.42;;
14256;SDS011;7212;53.254;6.456;2022-07-29T03:31:42;1.30;;;1.20;;
14256;SDS011;7212;53.254;6.456;2022-07-29T03:34:08;1.33;;;1.23;;
14256;SDS011;7212;53.254;6.456;2022-07-29T03:36:33;1.98;;;1.42;;
14256;SDS011;7212;53.254;6.456;2022-07-29T03:38:59;2.03;;;1.30;;
14256;SDS011;7212;53.254;6.456;2022-07-29T03:41:26;3.85;;;1.60;;
14256;SDS011;7212;53.254;6.456;2022-07-29T03:43:52;1.95;;;1.20;;
14256;SDS011;7212;53.254;6.456;2022-07-29T03:46:20;1.83;;;1.30;;
14256;SDS011;7212;53.254;6.456;2022-07-29T03:48:48;1.73;;;1.35;;
14256;SDS011;7212;53.254;6.456;2022-07-29T03:51:17;1.73;;;1.10;;
14256;SDS011;7212;53.254;6.456;2022-07-29T03:53:43;1.45;;;1.15;;
14256;SDS011;7212;53.254;6.456;2022-07-29T03:56:09;1.80;;;1.23;;
14256;SDS011;7212;53.254;6.456;2022-07-29T03:58:38;2.15;;;1.40;;
14256;SDS011;7212;53.254;6.456;2022-07-29T04:01:04;1.60;;;1.50;;
14256;SDS011;7212;53.254;6.456;2022-07-29T04:03:29;1.35;;;1.20;;
14256;SDS011;7212;53.254;6.456;2022-07-29T04:05:59;2.08;;;1.20;;
14256;SDS011;7212;53.254;6.456;2022-07-29T04:08:30;1.50;;;1.30;;
14256;SDS011;7212;53.254;6.456;2022-07-29T04:10:57;3.05;;;1.42;;
14256;SDS011;7212;53.254;6.456;2022-07-29T04:13:23;1.45;;;1.27;;
14256;SDS011;7212;53.254;6.456;2022-07-29T04:15:49;2.05;;;1.30;;
14256;SDS011;7212;53.254;6.456;2022-07-29T04:18:14;1.90;;;1.20;;
14256;SDS011;7212;53.254;6.456;2022-07-29T04:20:40;1.80;;;1.20;;
14256;SDS011;7212;53.254;6.456;2022-07-29T04:23:06;1.92;;;1.40;;
14256;SDS011;7212;53.254;6.456;2022-07-29T04:25:31;1.73;;;1.45;;
14256;SDS011;7212;53.254;6.456;2022-07-29T04:27:57;1.30;;;1.20;;
14256;SDS011;7212;53.254;6.456;2022-07-29T04:30:25;2.63;;;1.30;;
14256;SDS011;7212;53.254;6.456;2022-07-29T04:32:51;3.42;;;1.60;;
14256;SDS011;7212;53.254;6.456;2022-07-29T04:35:17;1.48;;;1.20;;
14256;SDS011;7212;53.254;6.456;2022-07-29T04:37:43;1.33;;;1.13;;
14256;SDS011;7212;53.254;6.456;2022-07-29T04:40:09;1.20;;;1.10;;
14256;SDS011;7212;53.254;6.456;2022-07-29T04:42:35;1.45;;;1.30;;
14256;SDS011;7212;53.254;6.456;2022-07-29T04:45:00;1.73;;;1.42;;
14256;SDS011;7212;53.254;6.456;2022-07-29T04:47:26;2.28;;;1.08;;
14256;SDS011;7212;53.254;6.456;2022-07-29T04:49:52;2.30;;;1.50;;
14256;SDS011;7212;53.254;6.456;2022-07-29T04:52:17;1.50;;;1.20;;
14256;SDS011;7212;53.254;6.456;2022-07-29T04:54:43;2.42;;;1.67;;
14256;SDS011;7212;53.254;6.456;2022-07-29T04:57:08;2.35;;;1.23;;
14256;SDS011;7212;53.254;6.456;2022-07-29T04:59:34;2.22;;;1.58;;
14256;SDS011;7212;53.254;6.456;2022-07-29T05:01:59;2.25;;;1.40;;
14256;SDS011;7212;53.254;6.456;2022-07-29T05:04:25;1.88;;;1.30;;
14256;SDS011;7212;53.254;6.456;2022-07-29T05:06:50;2.70;;;1.40;;
14256;SDS011;7212;53.254;6.456;2022-07-29T05:09:16;2.47;;;1.77;;
14256;SDS011;7212;53.254;6.456;2022-07-29T05:11:42;1.90;;;1.50;;
14256;SDS011;7212;53.254;6.456;2022-07-29T05:14:07;2.42;;;1.50;;
14256;SDS011;7212;53.254;6.456;2022-07-29T05:16:33;1.65;;;1.20;;
14256;SDS011;7212;53.254;6.456;2022-07-29T05:18:59;2.78;;;1.50;;
14256;SDS011;7212;53.254;6.456;2022-07-29T05:21:24;1.40;;;1.25;;
14256;SDS011;7212;53.254;6.456;2022-07-29T05:23:50;1.63;;;1.40;;
14256;SDS011;7212;53.254;6.456;2022-07-29T05:26:15;1.67;;;1.40;;
14256;SDS011;7212;53.254;6.456;2022-07-29T05:28:41;1.70;;;1.13;;
14256;SDS011;7212;53.254;6.456;2022-07-29T05:31:07;1.58;;;1.33;;
14256;SDS011;7212;53.254;6.456;2022-07-29T05:33:32;1.30;;;1.20;;
14256;SDS011;7212;53.254;6.456;2022-07-29T05:35:58;2.40;;;1.58;;
14256;SDS011;7212;53.254;6.456;2022-07-29T05:38:24;2.25;;;1.38;;
14256;SDS011;7212;53.254;6.456;2022-07-29T05:40:49;1.98;;;1.30;;
14256;SDS011;7212;53.254;6.456;2022-07-29T05:43:15;2.15;;;1.55;;
14256;SDS011;7212;53.254;6.456;2022-07-29T05:45:40;1.95;;;1.40;;
14256;SDS011;7212;53.254;6.456;2022-07-29T05:48:06;1.65;;;1.30;;
14256;SDS011;7212;53.254;6.456;2022-07-29T05:50:32;2.38;;;1.55;;
14256;SDS011;7212;53.254;6.456;2022-07-29T05:52:57;1.77;;;1.38;;
14256;SDS011;7212;53.254;6.456;2022-07-29T05:55:23;2.10;;;1.48;;
14256;SDS011;7212;53.254;6.456;2022-07-29T05:57:49;2.15;;;1.40;;
14256;SDS011;7212;53.254;6.456;2022-07-29T06:00:16;2.00;;;1.30;;
14256;SDS011;7212;53.254;6.456;2022-07-29T06:02:42;2.58;;;1.50;;
14256;SDS011;7212;53.254;6.456;2022-07-29T06:05:07;2.63;;;1.60;;
14256;SDS011;7212;53.254;6.456;2022-07-29T06:07:33;1.85;;;1.40;;
14256;SDS011;7212;53.254;6.456;2022-07-29T06:09:59;2.58;;;1.60;;
14256;SDS011;7212;53.254;6.456;2022-07-29T06:12:24;2.38;;;1.63;;
14256;SDS011;7212;53.254;6.456;2022-07-29T06:14:50;2.90;;;1.58;;
14256;SDS011;7212;53.254;6.456;2022-07-29T06:17:16;2.58;;;1.50;;
14256;SDS011;7212;53.254;6.456;2022-07-29T06:19:42;2.00;;;1.40;;
14256;SDS011;7212;53.254;6.456;2022-07-29T06:22:07;1.83;;;1.55;;
14256;SDS011;7212;53.254;6.456;2022-07-29T06:24:33;2.40;;;1.80;;
14256;SDS011;7212;53.254;6.456;2022-07-29T06:26:59;1.92;;;1.42;;
14256;SDS011;7212;53.254;6.456;2022-07-29T06:29:24;2.10;;;1.40;;
14256;SDS011;7212;53.254;6.456;2022-07-29T06:31:50;2.47;;;1.60;;
14256;SDS011;7212;53.254;6.456;2022-07-29T06:34:15;2.13;;;1.48;;
14256;SDS011;7212;53.254;6.456;2022-07-29T06:36:41;2.83;;;1.42;;
14256;SDS011;7212;53.254;6.456;2022-07-29T06:39:07;2.95;;;1.48;;
14256;SDS011;7212;53.254;6.456;2022-07-29T06:41:33;2.35;;;1.52;;
14256;SDS011;7212;53.254;6.456;2022-07-29T06:43:59;1.60;;;1.35;;
14256;SDS011;7212;53.254;6.456;2022-07-29T06:46:24;1.90;;;1.60;;
14256;SDS011;7212;53.254;6.456;2022-07-29T06:48:51;2.28;;;1.40;;
14256;SDS011;7212;53.254;6.456;2022-07-29T06:51:17;1.63;;;1.30;;
14256;SDS011;7212;53.254;6.456;2022-07-29T06:53:43;1.75;;;1.52;;
14256;SDS011;7212;53.254;6.456;2022-07-29T06:56:08;1.60;;;1.48;;
14256;SDS011;7212;53.254;6.456;2022-07-29T06:58:35;1.38;;;1.27;;
14256;SDS011;7212;53.254;6.456;2022-07-29T07:01:02;3.13;;;1.63;;
14256;SDS011;7212;53.254;6.456;2022-07-29T07:03:29;3.90;;;1.52;;
14256;SDS011;7212;53.254;6.456;2022-07-29T07:05:55;2.28;;;1.65;;
14256;SDS011;7212;53.254;6.456;2022-07-29T07:08:22;1.58;;;1.40;;
14256;SDS011;7212;53.254;6.456;2022-07-29T07:10:48;2.25;;;1.70;;
14256;SDS011;7212;53.254;6.456;2022-07-29T07:13:14;2.55;;;1.80;;
14256;SDS011;7212;53.254;6.456;2022-07-29T07:15:42;4.32;;;1.67;;
14256;SDS011;7212;53.254;6.456;2022-07-29T07:18:08;2.72;;;1.80;;
14256;SDS011;7212;53.254;6.456;2022-07-29T07:20:34;2.65;;;1.50;;
14256;SDS011;7212;53.254;6.456;2022-07-29T07:23:00;2.35;;;2.03;;
14256;SDS011;7212;53.254;6.456;2022-07-29T07:25:26;2.35;;;1.60;;
14256;SDS011;7212;53.254;6.456;2022-07-29T07:27:52;1.92;;;1.40;;
14256;SDS011;7212;53.254;6.456;2022-07-29T07:30:17;1.83;;;1.60;;
14256;SDS011;7212;53.254;6.456;2022-07-29T07:32:43;2.60;;;1.70;;
14256;SDS011;7212;53.254;6.456;2022-07-29T07:35:09;1.33;;;1.20;;
14256;SDS011;7212;53.254;6.456;2022-07-29T07:37:35;2.60;;;1.77;;
14256;SDS011;7212;53.254;6.456;2022-07-29T07:40:02;2.13;;;1.73;;
14256;SDS011;7212;53.254;6.456;2022-07-29T07:42:28;2.35;;;1.83;;
14256;SDS011;7212;53.254;6.456;2022-07-29T07:44:54;1.77;;;1.48;;
14256;SDS011;7212;53.254;6.456;2022-07-29T07:47:19;1.83;;;1.50;;
14256;SDS011;7212;53.254;6.456;2022-07-29T07:49:48;2.20;;;1.40;;
14256;SDS011;7212;53.254;6.456;2022-07-29T07:52:15;2.47;;;1.70;;
14256;SDS011;7212;53.254;6.456;2022-07-29T07:54:42;1.85;;;1.60;;
14256;SDS011;7212;53.254;6.456;2022-07-29T07:57:09;1.73;;;1.50;;
14256;SDS011;7212;53.254;6.456;2022-07-29T07:59:34;2.03;;;1.70;;
14256;SDS011;7212;53.254;6.456;2022-07-29T08:02:00;1.65;;;1.50;;
14256;SDS011;7212;53.254;6.456;2022-07-29T08:04:26;2.15;;;1.60;;
14256;SDS011;7212;53.254;6.456;2022-07-29T08:06:52;1.67;;;1.58;;
14256;SDS011;7212;53.254;6.456;2022-07-29T08:09:19;2.58;;;1.77;;
14256;SDS011;7212;53.254;6.456;2022-07-29T08:11:46;1.73;;;1.63;;
14256;SDS011;7212;53.254;6.456;2022-07-29T08:14:11;1.92;;;1.63;;
14256;SDS011;7212;53.254;6.456;2022-07-29T08:16:38;2.08;;;1.55;;
14256;SDS011;7212;53.254;6.456;2022-07-29T08:19:05;3.40;;;1.70;;
14256;SDS011;7212;53.254;6.456;2022-07-29T08:21:31;1.80;;;1.60;;
14256;SDS011;7212;53.254;6.456;2022-07-29T08:23:57;1.80;;;1.50;;
14256;SDS011;7212;53.254;6.456;2022-07-29T08:26:43;1.63;;;1.52;;
14256;SDS011;7212;53.254;6.456;2022-07-29T08:29:08;1.80;;;1.50;;
14256;SDS011;7212;53.254;6.456;2022-07-29T08:31:35;2.78;;;1.58;;
14256;SDS011;7212;53.254;6.456;2022-07-29T08:34:01;2.00;;;1.70;;
14256;SDS011;7212;53.254;6.456;2022-07-29T08:36:28;2.55;;;1.50;;
14256;SDS011;7212;53.254;6.456;2022-07-29T08:38:54;1.70;;;1.60;;
14256;SDS011;7212;53.254;6.456;2022-07-29T08:41:20;2.38;;;1.63;;
14256;SDS011;7212;53.254;6.456;2022-07-29T08:43:46;1.92;;;1.55;;
14256;SDS011;7212;53.254;6.456;2022-07-29T08:46:13;1.73;;;1.45;;
14256;SDS011;7212;53.254;6.456;2022-07-29T08:48:40;3.00;;;1.60;;
14256;SDS011;7212;53.254;6.456;2022-07-29T08:51:06;2.90;;;1.95;;
14256;SDS011;7212;53.254;6.456;2022-07-29T08:53:33;1.85;;;1.67;;
14256;SDS011;7212;53.254;6.456;2022-07-29T08:55:59;2.53;;;1.95;;
14256;SDS011;7212;53.254;6.456;2022-07-29T08:58:26;2.13;;;1.92;;
14256;SDS011;7212;53.254;6.456;2022-07-29T09:00:56;1.95;;;1.70;;
14256;SDS011;7212;53.254;6.456;2022-07-29T09:03:26;1.70;;;1.60;;
14256;SDS011;7212;53.254;6.456;2022-07-29T09:05:55;1.83;;;1.42;;
14256;SDS011;7212;53.254;6.456;2022-07-29T09:08:22;2.30;;;1.88;;
14256;SDS011;7212;53.254;6.456;2022-07-29T09:10:48;2.15;;;1.60;;
14256;SDS011;7212;53.254;6.456;2022-07-29T09:13:16;3.45;;;1.80;;
14256;SDS011;7212;53.254;6.456;2022-07-29T09:15:41;1.80;;;1.60;;
14256;SDS011;7212;53.254;6.456;2022-07-29T09:18:07;3.10;;;1.75;;
14256;SDS011;7212;53.254;6.456;2022-07-29T09:20:32;2.00;;;1.67;;
14256;SDS011;7212;53.254;6.456;2022-07-29T09:23:18;2.17;;;1.63;;
14256;SDS011;7212;53.254;6.456;2022-07-29T09:25:44;1.77;;;1.60;;
14256;SDS011;7212;53.254;6.456;2022-07-29T09:28:11;1.92;;;1.67;;
14256;SDS011;7212;53.254;6.456;2022-07-29T09:30:59;2.45;;;1.80;;
14256;SDS011;7212;53.254;6.456;2022-07-29T09:33:25;3.55;;;1.73;;
14256;SDS011;7212;53.254;6.456;2022-07-29T09:38:27;2.63;;;1.92;;
14256;SDS011;7212;53.254;6.456;2022-07-29T09:40:56;5.13;;;2.25;;
14256;SDS011;7212;53.254;6.456;2022-07-29T09:43:26;3.00;;;2.30;;
14256;SDS011;7212;53.254;6.456;2022-07-29T09:45:52;3.17;;;2.28;;
14256;SDS011;7212;53.254;6.456;2022-07-29T09:48:22;3.17;;;2.10;;
14256;SDS011;7212;53.254;6.456;2022-07-29T09:50:49;3.92;;;1.90;;
14256;SDS011;7212;53.254;6.456;2022-07-29T09:53:35;3.05;;;2.10;;
14256;SDS011;7212;53.254;6.456;2022-07-29T09:56:02;2.80;;;2.22;;
14256;SDS011;7212;53.254;6.456;2022-07-29T09:58:30;2.80;;;2.50;;
14256;SDS011;7212;53.254;6.456;2022-07-29T10:00:58;4.03;;;2.72;;
14256;SDS011;7212;53.254;6.456;2022-07-29T10:03:24;3.00;;;2.20;;
14256;SDS011;7212;53.254;6.456;2022-07-29T10:06:06;3.38;;;2.15;;
14256;SDS011;7212;53.254;6.456;2022-07-29T10:08:35;2.60;;;2.10;;
14256;SDS011;7212;53.254;6.456;2022-07-29T10:11:15;3.00;;;2.20;;
14256;SDS011;7212;53.254;6.456;2022-07-29T10:13:42;3.25;;;1.92;;
14256;SDS011;7212;53.254;6.456;2022-07-29T10:16:09;2.45;;;2.25;;
14256;SDS011;7212;53.254;6.456;2022-07-29T10:18:35;2.70;;;2.10;;
14256;SDS011;7212;53.254;6.456;2022-07-29T10:21:03;2.45;;;2.00;;
14256;SDS011;7212;53.254;6.456;2022-07-29T10:23:29;2.90;;;2.22;;
14256;SDS011;7212;53.254;6.456;2022-07-29T10:25:55;2.90;;;2.30;;
14256;SDS011;7212;53.254;6.456;2022-07-29T10:28:21;2.30;;;1.83;;
14256;SDS011;7212;53.254;6.456;2022-07-29T10:30:48;3.15;;;1.90;;
14256;SDS011;7212;53.254;6.456;2022-07-29T10:42:21;2.88;;;1.95;;
14256;SDS011;7212;53.254;6.456;2022-07-29T10:44:49;2.00;;;1.80;;
14256;SDS011;7212;53.254;6.456;2022-07-29T10:47:25;2.80;;;2.00;;
14256;SDS011;7212;53.254;6.456;2022-07-29T10:50:02;2.95;;;1.67;;
14256;SDS011;7212;53.254;6.456;2022-07-29T10:53:11;2.00;;;1.70;;
14256;SDS011;7212;53.254;6.456;2022-07-29T10:55:34;3.67;;;2.03;;
14256;SDS011;7212;53.254;6.456;2022-07-29T11:00:42;3.72;;;1.88;;
14256;SDS011;7212;53.254;6.456;2022-07-29T11:03:08;2.67;;;1.90;;
14256;SDS011;7212;53.254;6.456;2022-07-29T11:05:53;3.35;;;2.03;;
14256;SDS011;7212;53.254;6.456;2022-07-29T11:08:20;3.33;;;2.42;;
14256;SDS011;7212;53.254;6.456;2022-07-29T11:10:48;4.88;;;2.10;;
14256;SDS011;7212;53.254;6.456;2022-07-29T11:16:15;3.58;;;2.17;;
14256;SDS011;7212;53.254;6.456;2022-07-29T11:21:36;2.58;;;2.10;;
14256;SDS011;7212;53.254;6.456;2022-07-29T11:24:16;4.72;;;2.45;;
14256;SDS011;7212;53.254;6.456;2022-07-29T11:26:43;4.05;;;2.20;;
14256;SDS011;7212;53.254;6.456;2022-07-29T11:29:20;3.47;;;2.22;;
14256;SDS011;7212;53.254;6.456;2022-07-29T11:31:50;2.40;;;2.20;;
14256;SDS011;7212;53.254;6.456;2022-07-29T11:39:35;3.70;;;2.20;;
14256;SDS011;7212;53.254;6.456;2022-07-29T11:45:03;2.22;;;1.90;;
14256;SDS011;7212;53.254;6.456;2022-07-29T11:47:41;2.47;;;2.08;;
14256;SDS011;7212;53.254;6.456;2022-07-29T11:50:14;3.20;;;2.10;;
14256;SDS011;7212;53.254;6.456;2022-07-29T11:52:42;4.65;;;2.40;;
14256;SDS011;7212;53.254;6.456;2022-07-29T11:55:14;2.75;;;2.20;;
14256;SDS011;7212;53.254;6.456;2022-07-29T11:57:47;2.55;;;2.33;;
14256;SDS011;7212;53.254;6.456;2022-07-29T12:00:33;4.40;;;2.20;;
14256;SDS011;7212;53.254;6.456;2022-07-29T12:03:05;3.90;;;2.50;;
14256;SDS011;7212;53.254;6.456;2022-07-29T12:05:33;4.07;;;2.35;;
14256;SDS011;7212;53.254;6.456;2022-07-29T12:08:04;4.63;;;2.80;;
14256;SDS011;7212;53.254;6.456;2022-07-29T12:10:31;5.47;;;3.20;;
14256;SDS011;7212;53.254;6.456;2022-07-29T12:12:57;4.78;;;2.85;;
14256;SDS011;7212;53.254;6.456;2022-07-29T12:15:23;5.18;;;3.15;;
14256;SDS011;7212;53.254;6.456;2022-07-29T12:17:50;3.80;;;2.80;;
14256;SDS011;7212;53.254;6.456;2022-07-29T12:20:22;4.30;;;2.75;;
14256;SDS011;7212;53.254;6.456;2022-07-29T12:22:54;5.18;;;2.90;;
14256;SDS011;7212;53.254;6.456;2022-07-29T12:25:21;4.18;;;2.97;;
14256;SDS011;7212;53.254;6.456;2022-07-29T12:27:57;4.25;;;2.97;;
14256;SDS011;7212;53.254;6.456;2022-07-29T12:30:35;4.85;;;2.97;;
14256;SDS011;7212;53.254;6.456;2022-07-29T12:33:01;4.97;;;2.83;;
14256;SDS011;7212;53.254;6.456;2022-07-29T12:35:26;3.55;;;2.40;;
14256;SDS011;7212;53.254;6.456;2022-07-29T12:37:52;4.75;;;2.63;;
14256;SDS011;7212;53.254;6.456;2022-07-29T12:40:19;4.35;;;2.33;;
14256;SDS011;7212;53.254;6.456;2022-07-29T12:43:05;4.18;;;2.13;;
14256;SDS011;7212;53.254;6.456;2022-07-29T12:45:35;2.05;;;1.85;;
14256;SDS011;7212;53.254;6.456;2022-07-29T12:48:02;3.80;;;2.30;;
14256;SDS011;7212;53.254;6.456;2022-07-29T12:50:28;2.35;;;2.15;;
14256;SDS011;7212;53.254;6.456;2022-07-29T12:52:53;3.92;;;2.22;;
14256;SDS011;7212;53.254;6.456;2022-07-29T12:55:41;2.38;;;2.08;;
14256;SDS011;7212;53.254;6.456;2022-07-29T13:01:15;3.03;;;1.90;;
14256;SDS011;7212;53.254;6.456;2022-07-29T13:03:52;2.80;;;1.77;;
14256;SDS011;7212;53.254;6.456;2022-07-29T13:06:38;2.08;;;1.85;;
14256;SDS011;7212;53.254;6.456;2022-07-29T13:09:06;2.15;;;1.83;;
14256;SDS011;7212;53.254;6.456;2022-07-29T13:11:42;3.17;;;1.80;;
14256;SDS011;7212;53.254;6.456;2022-07-29T13:14:10;2.40;;;1.80;;
14256;SDS011;7212;53.254;6.456;2022-07-29T13:22:33;3.42;;;1.90;;
14256;SDS011;7212;53.254;6.456;2022-07-29T13:25:00;3.25;;;1.85;;
14256;SDS011;7212;53.254;6.456;2022-07-29T13:27:32;1.95;;;1.65;;
14256;SDS011;7212;53.254;6.456;2022-07-29T13:29:59;2.28;;;1.60;;
14256;SDS011;7212;53.254;6.456;2022-07-29T13:32:27;5.50;;;1.98;;
14256;SDS011;7212;53.254;6.456;2022-07-29T13:34:59;4.07;;;1.98;;
14256;SDS011;7212;53.254;6.456;2022-07-29T13:37:27;2.58;;;1.50;;
14256;SDS011;7212;53.254;6.456;2022-07-29T13:39:54;1.60;;;1.50;;
14256;SDS011;7212;53.254;6.456;2022-07-29T13:42:21;2.85;;;1.90;;
14256;SDS011;7212;53.254;6.456;2022-07-29T13:44:47;5.13;;;1.48;;
14256;SDS011;7212;53.254;6.456;2022-07-29T13:47:17;3.10;;;1.80;;
14256;SDS011;7212;53.254;6.456;2022-07-29T13:49:43;2.00;;;1.80;;
14256;SDS011;7212;53.254;6.456;2022-07-29T13:52:09;3.10;;;1.83;;
14256;SDS011;7212;53.254;6.456;2022-07-29T13:54:35;3.47;;;2.05;;
14256;SDS011;7212;53.254;6.456;2022-07-29T13:57:02;2.70;;;1.80;;
14256;SDS011;7212;53.254;6.456;2022-07-29T13:59:28;3.22;;;1.88;;
14256;SDS011;7212;53.254;6.456;2022-07-29T14:01:54;2.78;;;1.88;;
14256;SDS011;7212;53.254;6.456;2022-07-29T14:04:19;2.17;;;1.98;;
14256;SDS011;7212;53.254;6.456;2022-07-29T14:06:46;3.08;;;1.92;;
14256;SDS011;7212;53.254;6.456;2022-07-29T14:09:12;1.80;;;1.60;;
14256;SDS011;7212;53.254;6.456;2022-07-29T14:11:37;2.53;;;1.50;;
14256;SDS011;7212;53.254;6.456;2022-07-29T14:14:03;2.45;;;1.60;;
14256;SDS011;7212;53.254;6.456;2022-07-29T14:16:29;2.00;;;1.40;;
14256;SDS011;7212;53.254;6.456;2022-07-29T14:18:54;2.47;;;1.52;;
14256;SDS011;7212;53.254;6.456;2022-07-29T14:21:20;2.38;;;1.70;;
14256;SDS011;7212;53.254;6.456;2022-07-29T14:23:46;2.05;;;1.65;;
14256;SDS011;7212;53.254;6.456;2022-07-29T14:26:12;1.92;;;1.77;;
14256;SDS011;7212;53.254;6.456;2022-07-29T14:28:38;1.52;;;1.40;;
14256;SDS011;7212;53.254;6.456;2022-07-29T14:31:03;2.97;;;1.98;;
14256;SDS011;7212;53.254;6.456;2022-07-29T14:33:29;2.30;;;1.73;;
14256;SDS011;7212;53.254;6.456;2022-07-29T14:35:55;2.70;;;1.65;;
14256;SDS011;7212;53.254;6.456;2022-07-29T14:38:20;2.85;;;1.63;;
14256;SDS011;7212;53.254;6.456;2022-07-29T14:40:46;2.00;;;1.80;;
14256;SDS011;7212;53.254;6.456;2022-07-29T14:43:12;1.63;;;1.52;;
14256;SDS011;7212;53.254;6.456;2022-07-29T14:45:38;2.03;;;1.55;;
14256;SDS011;7212;53.254;6.456;2022-07-29T14:48:05;2.97;;;1.63;;
14256;SDS011;7212;53.254;6.456;2022-07-29T14:50:30;3.05;;;1.65;;
14256;SDS011;7212;53.254;6.456;2022-07-29T14:52:56;1.73;;;1.45;;
14256;SDS011;7212;53.254;6.456;2022-07-29T14:55:22;1.60;;;1.50;;
14256;SDS011;7212;53.254;6.456;2022-07-29T14:57:48;2.53;;;1.80;;
14256;SDS011;7212;53.254;6.456;2022-07-29T15:00:15;6.82;;;1.88;;
14256;SDS011;7212;53.254;6.456;2022-07-29T15:02:41;2.00;;;1.38;;
14256;SDS011;7212;53.254;6.456;2022-07-29T15:05:07;2.65;;;1.70;;
14256;SDS011;7212;53.254;6.456;2022-07-29T15:07:33;1.80;;;1.45;;
14256;SDS011;7212;53.254;6.456;2022-07-29T15:09:58;1.52;;;1.27;;
14256;SDS011;7212;53.254;6.456;2022-07-29T15:12:24;1.73;;;1.45;;
14256;SDS011;7212;53.254;6.456;2022-07-29T15:14:50;2.13;;;1.60;;
14256;SDS011;7212;53.254;6.456;2022-07-29T15:17:15;3.90;;;1.58;;
14256;SDS011;7212;53.254;6.456;2022-07-29T15:19:41;2.90;;;1.77;;
14256;SDS011;7212;53.254;6.456;2022-07-29T15:22:07;2.60;;;1.67;;
14256;SDS011;7212;53.254;6.456;2022-07-29T15:24:32;2.15;;;1.90;;
14256;SDS011;7212;53.254;6.456;2022-07-29T15:26:58;2.78;;;1.63;;
14256;SDS011;7212;53.254;6.456;2022-07-29T15:29:24;2.33;;;1.70;;
14256;SDS011;7212;53.254;6.456;2022-07-29T15:31:49;2.97;;;1.70;;
14256;SDS011;7212;53.254;6.456;2022-07-29T15:34:15;2.95;;;1.70;;
14256;SDS011;7212;53.254;6.456;2022-07-29T15:36:41;2.28;;;1.63;;
14256;SDS011;7212;53.254;6.456;2022-07-29T15:39:06;3.08;;;1.70;;
14256;SDS011;7212;53.254;6.456;2022-07-29T15:41:32;2.95;;;1.67;;
14256;SDS011;7212;53.254;6.456;2022-07-29T15:43:58;4.18;;;1.80;;
14256;SDS011;7212;53.254;6.456;2022-07-29T15:46:24;1.75;;;1.63;;
14256;SDS011;7212;53.254;6.456;2022-07-29T15:49:08;2.97;;;1.80;;
14256;SDS011;7212;53.254;6.456;2022-07-29T15:51:34;2.40;;;1.83;;
14256;SDS011;7212;53.254;6.456;2022-07-29T15:54:03;2.30;;;1.63;;